LICJLIPH

Guest
Details From LICJ - Palermo
To LIPH - Treviso
Flight Number -
Tags Generated
Created
Modified
Stats Distance 451 nm / 835 km
Max Altitude 0 ft / 0 m
Waypoints 4
Social Downloads 0
Likes 0
Share VATSIM

Download

Looking for another format? Having issues loading an existing format? Contact us
Advertisement - Login to hide

Notes

Generated

Route

LICJ LAT15 R2173 LIPH

ID Type Via Altitude Latitude Longitude Leg Dist Tot Dist Heading (true) Name
O LICJ APT - 0 ft / 0 m 38.16614˚ 13.08562˚ - 0 nm - -
LAT15 FIX - 0 ft / 0 m 41.72635˚ 12.69403˚ 214 nm 214 nm 355° / 355° -
R2173 FIX - 0 ft / 0 m 45.64489˚ 12.18056˚ 236 nm 450 nm 355° / 354° -
O LIPH APT - 0 ft / 0 m 45.64464˚ 12.17963˚ 0 nm 451 nm 249° / 249° -

Altitude Profile

Advertisement - Login to hide

Weather


0- 5 10 15 20 25 30 35+ Temperature / ° C

Clouds and Precipitation
Forecast for 2018-05-27 12:00 UTC. Updated an hour ago

Ground ~20,000 ft ~40,000 ft Winds

LICJ

Details ICAO LICJ (PMO)
Name PALERMO
Region Italy
Timezone Europe/Rome (UTC+2.0)
Stats Elevation 65 ft / 20 m (AMSL)
Location 38.177377° 13.097035°
Runways 2
Magnetic Variation 2.994° E

METAR

LICJ 270950Z 35005KT CAVOK 22/19 Q1019

Decode

TAF

TAF LICJ 270500Z 2706/2806 VRB05KT CAVOK BECMG 2708/2710 04013KT BECMG 2718/2720 VRB05KT

Decode

Departure Runways

ID Width Length Bearing (true) Bearing (mag) Surface Threshold Offset Overrun Length
02 148 ft / 45 m 6,813 ft / 2,077 m 23.81° 20.82° Asphalt 10 ft / 3 m 0 ft / 0 m
07 197 ft / 60 m 10,685 ft / 3,257 m 66.82° 63.83° Asphalt 404 ft / 123 m 0 ft / 0 m
20 148 ft / 45 m 6,813 ft / 2,077 m 203.81° 200.82° Asphalt 10 ft / 3 m 0 ft / 0 m
25 197 ft / 60 m 10,685 ft / 3,257 m 246.85° 243.86° Asphalt 679 ft / 207 m 0 ft / 0 m

LIPH

Details ICAO LIPH (TSF)
Name TREVISO
Region Italy
Timezone Europe/Rome (UTC+2.0)
Stats Elevation 59 ft / 18 m (AMSL)
Location 45.648499° 12.194136°
Runways 1
Magnetic Variation 3.203° E

METAR

LIPH 270950Z VRB04KT CAVOK 28/18 Q1018

Decode

TAF

TAF LIPH 270500Z 2706/2806 VRB05KT 9999 FEW040

Decode

Destination Runways

ID Width Length Bearing (true) Bearing (mag) Surface Threshold Offset Overrun Length
07 144 ft / 44 m 7,919 ft / 2,414 m 69.18° 65.98° Asphalt 254 ft / 77 m 975 ft / 297 m
25 144 ft / 44 m 7,919 ft / 2,414 m 249.20° 246.00° Asphalt 389 ft / 119 m 0 ft / 0 m

Approach Navaids

Runway Type Ident Frequency Range Bearing (true) Bearing (mag) Slope Elevation
07 Localiser TRE 109.30 MHz 18 nm / 33 km 69.20° 66.00° - 51 ft / 16 m (AMSL)
07 Glidescope TRE 109.30 MHz 10 nm / 19 km 69.19° 65.99° 3.00° 56 ft / 17 m (AMSL)

Popular Alternatives